nws-alerts: Checking more than four warning/county codes can delay the loading of your pages. You should use a cron job to get the data.

Nearby METAR Reports

 

KFCI - Richmond/Chester, Virginia, USA
Distance from station: ESE 7mi, 11km
Updated: Wed, 23-Jun-2021 6:56pm EDT
Clear
Clear
 Wind from NNE
Wind: NNE 5 mph , 7 km/h
Temperature: 73°F , 23°C
Dew Point: 46°F , 8°C
Humidity: 38%
Barometer: 30.24 inHg , 1024 hPa
Clouds: Clear
Visibility: 10 miles , 16 km
2021/06/23 22:56 KFCI 232256Z AUTO 03004KT 10SM CLR 23/08 A3024 RMK AO2 SLP251 T02330078
KRIC - Richmond, Virginia, USA
Distance from station: ENE 19mi, 30km
Updated: Wed, 23-Jun-2021 6:54pm EDT
Partly cloudy
Partly cloudy
 Wind from N
Wind: N 7 mph , 11 km/h
Temperature: 75°F , 24°C
Dew Point: 46°F , 8°C
Humidity: 36%
Barometer: 30.24 inHg , 1024 hPa
Clouds: Partly cloudy
Visibility: 10 miles , 16 km
Cloud details: Few Clouds 6000 ft
Partly cloudy 30000 ft
2021/06/23 22:54 KRIC 232254Z 01006KT 10SM FEW060 SCT300 24/08 A3024 RMK AO2 SLP243 T02390078
 
KPTB - Petersburg, Virginia, USA
Distance from station: SSE 19mi, 31km
Updated: Wed, 23-Jun-2021 7:35pm EDT
Clear
Clear
 Wind from NNE
Wind: NNE 3 mph , 6 km/h
Temperature: 73°F , 23°C
Dew Point: 46°F , 8°C
Humidity: 38%
Barometer: 30.25 inHg , 1024.4 hPa
Clouds: Clear
Visibility: 10 miles , 16 km
2021/06/23 23:35 KPTB 232335Z AUTO 02003KT 10SM CLR 23/08 A3025 RMK AO2 T02300077 TSNO
KOFP - Richmond/Hanover, Virginia, USA
Distance from station: NNE 22mi, 36km
Updated: Wed, 23-Jun-2021 6:54pm EDT
Clear
Clear
 Wind from calm
Wind: Calm
Temperature: 75°F , 24°C
Dew Point: 46°F , 8°C
Humidity: 36%
Barometer: 30.25 inHg , 1024.4 hPa
Clouds: Clear
Visibility: 10 miles , 16 km
2021/06/23 22:54 KOFP 232254Z AUTO 00000KT 10SM CLR 24/08 A3025 RMK AO2 SLP243 T02390078
 
KW96 - Quinton, Virginia, USA
Distance from station: E 28mi, 46km
Updated: Wed, 23-Jun-2021 7:35pm EDT
Clear
Clear
 Wind from ENE
Wind: ENE 5 mph , 7 km/h
Temperature: 72°F , 22°C
Dew Point: 54°F , 12°C
Humidity: 53%
Barometer: 30.25 inHg , 1024.4 hPa
Clouds: Clear
Visibility: 10 miles , 16 km
2021/06/23 23:35 KW96 232335Z AUTO 06004KT 10SM CLR 22/12 A3025 RMK AO1 T02180117
KBKT - Blackstone Army, Virginia, USA
Distance from station: SW 30mi, 48km
Updated: Wed, 23-Jun-2021 7:35pm EDT
Clear
Clear
 Wind from NNE
Wind: NNE 3 mph , 6 km/h
Temperature: 72°F , 22°C
Dew Point: 50°F , 10°C
Humidity: 47%
Barometer: 30.25 inHg , 1024.4 hPa
Clouds: Clear
Visibility: 10 miles , 16 km
2021/06/23 23:35 KBKT 232335Z AUTO 03003KT 10SM CLR 22/10 A3025 RMK AO1 T02180103
 
KW81 - Crewe, Virginia, USA
Distance from station: SW 30mi, 49km
Updated: Wed, 23-Jun-2021 7:35pm EDT
Clear
Clear
 Wind from calm
Wind: Calm
Temperature: 66°F , 19°C
Dew Point: 52°F , 11°C
Humidity: 60%
Barometer: 30.25 inHg , 1024.4 hPa
Clouds: Clear
Visibility: 10 miles , 16 km
2021/06/23 23:35 KW81 232335Z AUTO 00000KT 10SM CLR 19/11 A3025 RMK AO1 T01900108
K7W4 - Bumpass, Virginia, USA
Distance from station: N 38mi, 61km
Updated: Wed, 23-Jun-2021 7:35pm EDT
Clear
Clear
 Wind from WSW
Wind: WSW 5 mph , 7 km/h
Temperature: 68°F , 20°C
Dew Point: 50°F , 10°C
Humidity: 53%
Barometer: 30.25 inHg , 1024.4 hPa
Clouds: Clear
Visibility: 10 miles , 16 km
2021/06/23 23:35 K7W4 232335Z AUTO 24004KT 10SM CLR 20/10 A3025 RMK AO1 T02000104
 
KFVX - Farmville, Virginia, USA
Distance from station: W 43mi, 69km
Updated: Wed, 23-Jun-2021 7:35pm EDT
Clear
Clear
 Wind from calm
Wind: Calm
Temperature: 64°F , 18°C
Dew Point: 55°F , 13°C
Humidity: 73%
Barometer: 30.25 inHg , 1024.4 hPa
Clouds: Clear
Visibility: 10 miles , 16 km
2021/06/23 23:35 KFVX 232335Z AUTO 00000KT 10SM CLR 18/13 A3025 RMK AO2 T01760131
KW31 - Kenbridge, Virginia, USA
Distance from station: SW 43mi, 70km
Updated: Wed, 23-Jun-2021 7:35pm EDT
Clear
Clear
 Wind from NNE
Wind: NNE 3 mph , 6 km/h
Temperature: 73°F , 23°C
Dew Point: 48°F , 9°C
Humidity: 41%
Barometer: 30.25 inHg , 1024.4 hPa
Clouds: Clear
Visibility: 10 miles , 16 km
2021/06/23 23:35 KW31 232335Z AUTO 02003KT 10SM CLR 23/09 A3025 RMK AO1 T02250092
 
KLKU - Louisa, Virginia, USA
Distance from station: NNW 44mi, 72km
Updated: Wed, 23-Jun-2021 7:15pm EDT
Clear
Clear
 Wind from calm
Wind: Calm
Temperature: 68°F , 20°C
Dew Point: 57°F , 14°C
Humidity: 69%
Barometer: 30.30 inHg , 1026.1 hPa
Clouds: Clear
Visibility: 10 miles , 16 km
2021/06/23 23:15 KLKU 232315Z AUTO 00000KT 10SM CLR 20/14 A3030 RMK AO2 PWINO T02030140
KLVL - Lawrenceville, Virginia, USA
Distance from station: S 46mi, 75km
Updated: Wed, 23-Jun-2021 7:35pm EDT
Partly cloudy
Partly cloudy
 Wind from calm
Wind: Calm
Temperature: 70°F , 21°C
Dew Point: 52°F , 11°C
Humidity: 53%
Barometer: 30.25 inHg , 1024.4 hPa
Clouds: Partly cloudy
Visibility: 10 miles , 16 km
Cloud details: Partly cloudy 6000 ft
2021/06/23 23:35 KLVL 232335Z AUTO 00000KT 10SM SCT060 21/11 A3025 RMK AO1 T02130112
 
KAKQ - Norfolk/Wakefld, Virginia, USA
Distance from station: SE 47mi, 75km
Updated: Wed, 23-Jun-2021 6:54pm EDT
Clear
Clear
 Wind from ENE
Wind: ENE 5 mph , 7 km/h
Temperature: 73°F , 23°C
Dew Point: 55°F , 13°C
Humidity: 53%
Barometer: 30.23 inHg , 1023.7 hPa
Clouds: Clear
Visibility: 10 miles , 16 km
2021/06/23 22:54 KAKQ 232254Z AUTO 06004KT 10SM CLR 23/13 A3023 RMK AO2 SLP238 T02330128
KFYJ - West Point, Virginia, USA
Distance from station: E 48mi, 78km
Updated: Wed, 23-Jun-2021 7:35pm EDT
Clear
Clear
 Wind from NE
Wind: NE 3 mph , 6 km/h
Temperature: 70°F , 21°C
Dew Point: 50°F , 10°C
Humidity: 50%
Barometer: 30.26 inHg , 1024.7 hPa
Clouds: Clear
Visibility: 10 miles , 16 km
2021/06/23 23:35 KFYJ 232335Z AUTO 05003KT 10SM CLR 21/10 A3026 RMK AO1 T02070098